createdAt,value
2022-08-25T00:00:45.709Z,6.80
2022-08-25T00:03:19.172Z,6.93
2022-08-25T00:05:50.042Z,6.25
2022-08-25T00:08:20.347Z,7.15
2022-08-25T00:10:57.756Z,6.95
2022-08-25T00:13:33.766Z,5.78
2022-08-25T00:16:04.289Z,6.13
2022-08-25T00:18:35.261Z,6.95
2022-08-25T00:21:06.095Z,6.78
2022-08-25T00:23:36.990Z,7.63
2022-08-25T00:26:08.053Z,7.95
2022-08-25T00:28:39.938Z,6.22
2022-08-25T00:31:14.036Z,8.23
2022-08-25T00:33:46.835Z,7.00
2022-08-25T00:36:18.960Z,8.88
2022-08-25T00:38:51.282Z,8.32
2022-08-25T00:41:25.522Z,11.00
2022-08-25T00:44:03.375Z,9.73
2022-08-25T00:46:39.445Z,9.63
2022-08-25T00:49:25.079Z,8.82
2022-08-25T00:52:05.486Z,9.32
2022-08-25T00:57:16.929Z,9.90
2022-08-25T00:59:47.537Z,10.57
2022-08-25T01:02:21.301Z,11.50
2022-08-25T01:04:52.143Z,13.02
2022-08-25T01:07:27.001Z,9.63
2022-08-25T01:09:57.834Z,11.68
2022-08-25T01:12:28.462Z,9.77
2022-08-25T01:15:00.034Z,9.18
2022-08-25T01:17:38.271Z,8.88
2022-08-25T01:20:08.992Z,9.50
2022-08-25T01:22:40.129Z,8.27
2022-08-25T01:25:38.487Z,9.27
2022-08-25T01:28:09.654Z,7.68
2022-08-25T01:30:40.703Z,8.30
2022-08-25T01:33:13.816Z,8.52
2022-08-25T01:35:44.392Z,8.10
2022-08-25T01:38:15.652Z,10.32
2022-08-25T01:40:46.448Z,10.88
2022-08-25T01:43:29.226Z,8.63
2022-08-25T01:46:00.232Z,10.20
2022-08-25T01:48:31.297Z,9.52
2022-08-25T01:51:01.746Z,8.90
2022-08-25T01:53:34.258Z,9.90
2022-08-25T01:56:13.642Z,10.30
2022-08-25T01:58:48.398Z,8.80
2022-08-25T02:01:28.413Z,10.60
2022-08-25T02:03:59.648Z,11.02
2022-08-25T02:06:34.369Z,12.35
2022-08-25T02:09:11.319Z,11.88
2022-08-25T02:11:44.701Z,11.98
2022-08-25T02:14:16.774Z,12.00
2022-08-25T02:16:52.982Z,12.38
2022-08-25T02:19:26.465Z,11.68
2022-08-25T02:21:57.827Z,11.95
2022-08-25T02:24:28.410Z,14.13
2022-08-25T02:27:00.128Z,13.75
2022-08-25T02:29:30.707Z,15.65
2022-08-25T02:32:00.989Z,17.27
2022-08-25T02:34:31.330Z,18.27
2022-08-25T02:37:01.695Z,18.33
2022-08-25T02:39:32.012Z,15.70
2022-08-25T02:42:02.427Z,16.58
2022-08-25T02:44:33.823Z,13.18
2022-08-25T02:47:05.235Z,16.58
2022-08-25T02:49:35.616Z,15.30
2022-08-25T02:52:07.407Z,14.65
2022-08-25T02:54:38.918Z,12.18
2022-08-25T02:57:09.681Z,12.95
2022-08-25T02:59:41.137Z,13.40
2022-08-25T03:02:11.509Z,11.20
2022-08-25T03:04:41.850Z,11.77
2022-08-25T03:07:14.737Z,10.77
2022-08-25T03:09:46.319Z,12.68
2022-08-25T03:12:16.878Z,10.93
2022-08-25T03:14:47.572Z,7.90
2022-08-25T03:17:18.105Z,6.97
2022-08-25T03:19:48.626Z,7.80
2022-08-25T03:22:18.950Z,8.40
2022-08-25T03:24:49.469Z,6.18
2022-08-25T03:27:20.275Z,6.47
2022-08-25T03:29:51.622Z,6.80
2022-08-25T03:32:21.969Z,4.53
2022-08-25T03:34:53.614Z,3.13
2022-08-25T03:37:23.852Z,3.25
2022-08-25T03:39:54.241Z,3.30
2022-08-25T03:42:24.704Z,3.25
2022-08-25T03:44:55.211Z,4.32
2022-08-25T03:47:27.976Z,4.50
2022-08-25T03:49:58.596Z,3.15
2022-08-25T03:52:29.153Z,3.35
2022-08-25T03:54:59.721Z,3.40
2022-08-25T03:57:30.725Z,2.40
2022-08-25T04:00:01.214Z,2.65
2022-08-25T04:02:33.830Z,3.00
2022-08-25T04:05:04.296Z,3.75
2022-08-25T04:07:34.943Z,2.85
2022-08-25T04:10:05.465Z,3.80
2022-08-25T04:12:36.022Z,3.08
2022-08-25T04:15:09.709Z,2.92
2022-08-25T04:17:45.149Z,2.97
2022-08-25T04:20:16.592Z,2.75
2022-08-25T04:22:47.046Z,3.70
2022-08-25T04:25:17.874Z,3.17
2022-08-25T04:27:48.348Z,3.85
2022-08-25T04:30:18.964Z,2.17
2022-08-25T04:32:50.633Z,3.08
2022-08-25T04:35:21.090Z,2.85
2022-08-25T04:37:52.348Z,3.08
2022-08-25T04:40:28.913Z,3.10
2022-08-25T04:42:59.850Z,3.70
2022-08-25T04:45:30.282Z,2.47
2022-08-25T04:48:03.584Z,2.95
2022-08-25T04:50:34.085Z,3.45
2022-08-25T04:53:04.915Z,3.00
2022-08-25T04:55:35.192Z,2.72
2022-08-25T04:58:05.678Z,3.55
2022-08-25T05:03:16.485Z,2.60
2022-08-25T05:05:47.091Z,4.47
2022-08-25T05:08:17.421Z,3.10
2022-08-25T05:10:48.044Z,3.05
2022-08-25T05:13:18.412Z,4.47
2022-08-25T05:15:57.214Z,3.50
2022-08-25T05:18:32.951Z,3.65
2022-08-25T05:21:10.283Z,2.85
2022-08-25T05:23:41.219Z,3.28
2022-08-25T05:26:19.729Z,2.85
2022-08-25T05:28:53.450Z,3.13
2022-08-25T05:31:25.427Z,3.75
2022-08-25T05:38:03.724Z,2.90
2022-08-25T05:40:34.679Z,2.58
2022-08-25T05:43:06.512Z,3.28
2022-08-25T05:45:37.717Z,3.47
2022-08-25T05:48:08.354Z,3.40
2022-08-25T05:50:38.606Z,3.40
2022-08-25T05:53:08.859Z,2.60
2022-08-25T05:55:39.215Z,3.30
2022-08-25T05:58:10.228Z,3.80
2022-08-25T06:00:44.943Z,3.60
2022-08-25T06:03:15.860Z,3.38
2022-08-25T06:05:46.331Z,3.35
2022-08-25T06:08:18.064Z,4.25
2022-08-25T06:10:48.329Z,3.70
2022-08-25T06:13:18.647Z,4.20
2022-08-25T06:16:04.361Z,3.80
2022-08-25T06:18:34.854Z,4.45
2022-08-25T06:21:14.859Z,3.50
2022-08-25T06:23:45.568Z,2.95
2022-08-25T06:26:21.119Z,3.40
2022-08-25T06:28:53.225Z,5.38
2022-08-25T06:31:24.615Z,3.08
2022-08-25T06:33:55.073Z,3.15
2022-08-25T06:36:25.296Z,3.33
2022-08-25T06:38:56.021Z,3.42
2022-08-25T06:41:36.481Z,3.58
2022-08-25T06:44:08.560Z,3.10
2022-08-25T06:46:38.946Z,3.22
2022-08-25T06:49:10.362Z,3.20
2022-08-25T06:51:40.670Z,3.58
2022-08-25T06:54:12.393Z,3.35
2022-08-25T06:56:44.252Z,3.40
2022-08-25T06:59:14.997Z,3.17
2022-08-25T07:01:45.968Z,2.97
2022-08-25T07:04:20.878Z,2.70
2022-08-25T07:06:51.173Z,3.58
2022-08-25T07:09:21.565Z,3.13
2022-08-25T07:11:51.804Z,3.28
2022-08-25T07:14:22.514Z,3.00
2022-08-25T07:16:52.853Z,3.53
2022-08-25T07:19:23.360Z,2.17
2022-08-25T07:21:59.290Z,3.05
2022-08-25T07:24:29.862Z,3.15
2022-08-25T07:27:01.349Z,3.80
2022-08-25T07:29:34.090Z,3.05
2022-08-25T07:32:05.928Z,3.42
2022-08-25T07:34:51.802Z,3.15
2022-08-25T07:37:48.931Z,3.60
2022-08-25T07:40:26.550Z,2.58
2022-08-25T07:43:00.296Z,2.85
2022-08-25T07:45:41.136Z,2.20
2022-08-25T07:48:22.710Z,2.80
2022-08-25T07:50:53.916Z,2.45
2022-08-25T07:53:24.882Z,2.80
2022-08-25T07:55:55.474Z,2.28
2022-08-25T07:58:26.165Z,2.40
2022-08-25T08:00:56.543Z,3.13
2022-08-25T08:03:45.279Z,2.22
2022-08-25T08:06:25.209Z,2.80
2022-08-25T08:08:57.813Z,3.13
2022-08-25T08:11:33.135Z,2.53
2022-08-25T08:14:04.662Z,2.65
2022-08-25T08:16:35.727Z,3.60
2022-08-25T08:19:07.011Z,2.50
2022-08-25T08:21:39.185Z,3.58
2022-08-25T08:24:24.777Z,2.38
2022-08-25T08:27:01.188Z,2.42
2022-08-25T08:29:31.772Z,2.30
2022-08-25T08:32:02.193Z,2.33
2022-08-25T08:34:34.388Z,2.38
2022-08-25T08:37:06.039Z,2.60
2022-08-25T08:39:41.060Z,3.13
2022-08-25T08:42:42.315Z,2.35
2022-08-25T08:45:35.449Z,1.70
2022-08-25T08:48:43.692Z,1.92
2022-08-25T08:51:38.031Z,2.20
2022-08-25T08:54:21.023Z,2.42
2022-08-25T08:57:06.333Z,1.90
2022-08-25T08:59:46.608Z,2.63
2022-08-25T09:02:38.782Z,9.10
2022-08-25T09:05:23.431Z,24.80
2022-08-25T09:08:02.366Z,17.02
2022-08-25T09:10:44.840Z,12.15
2022-08-25T09:13:43.803Z,4.93
2022-08-25T09:17:01.092Z,7.93
2022-08-25T09:20:01.886Z,9.45
2022-08-25T09:23:12.354Z,18.75
2022-08-25T09:26:02.324Z,11.88
2022-08-25T09:28:43.950Z,6.82
2022-08-25T09:31:35.865Z,3.58
2022-08-25T09:34:09.831Z,2.78
2022-08-25T09:36:42.931Z,3.38
2022-08-25T09:39:15.129Z,8.43
2022-08-25T09:41:54.297Z,4.13
2022-08-25T09:44:35.721Z,5.53
2022-08-25T09:47:20.817Z,3.00
2022-08-25T09:50:05.701Z,2.95
2022-08-25T09:52:41.303Z,2.72
2022-08-25T09:55:36.509Z,4.18
2022-08-25T09:58:20.326Z,4.07
2022-08-25T10:01:24.480Z,3.67
2022-08-25T10:04:01.880Z,3.13
2022-08-25T10:06:47.103Z,2.40
2022-08-25T10:09:36.368Z,2.40
2022-08-25T10:14:51.455Z,3.13
2022-08-25T10:17:35.803Z,2.78
2022-08-25T10:20:33.021Z,4.00
2022-08-25T10:23:18.264Z,3.30
2022-08-25T10:25:59.151Z,3.40
2022-08-25T10:28:49.585Z,3.15
2022-08-25T10:31:34.706Z,2.88
2022-08-25T10:34:27.178Z,3.00
2022-08-25T10:37:22.285Z,2.83
2022-08-25T10:40:31.106Z,2.13
2022-08-25T10:43:29.286Z,3.05
2022-08-25T10:46:19.901Z,3.28
2022-08-25T10:49:03.446Z,3.47
2022-08-25T10:52:00.282Z,2.40
2022-08-25T10:54:52.420Z,3.97
2022-08-25T10:57:47.373Z,2.88
2022-08-25T11:00:31.447Z,2.65
2022-08-25T11:03:36.589Z,4.22
2022-08-25T11:06:12.195Z,4.82
2022-08-25T11:09:02.098Z,4.53
2022-08-25T11:11:59.472Z,3.85
2022-08-25T11:14:52.199Z,3.58
2022-08-25T11:17:27.888Z,3.40
2022-08-25T11:20:06.885Z,3.72
2022-08-25T11:23:01.164Z,4.20
2022-08-25T11:25:44.769Z,3.90
2022-08-25T11:28:38.693Z,4.07
2022-08-25T11:31:11.672Z,3.58
2022-08-25T11:33:42.147Z,4.55
2022-08-25T11:39:57.554Z,4.82
2022-08-25T11:42:57.743Z,5.05
2022-08-25T11:45:57.490Z,6.22
2022-08-25T11:48:44.701Z,5.95
2022-08-25T11:51:38.963Z,5.57
2022-08-25T11:54:36.977Z,7.20
2022-08-25T11:57:20.375Z,4.50
2022-08-25T12:00:12.812Z,7.70
2022-08-25T12:02:52.919Z,6.90
2022-08-25T12:05:55.584Z,9.18
2022-08-25T12:09:00.666Z,11.20
2022-08-25T12:11:46.535Z,9.70
2022-08-25T12:14:40.773Z,10.60
2022-08-25T12:17:23.309Z,9.00
2022-08-25T12:19:57.344Z,9.57
2022-08-25T12:22:57.141Z,9.82
2022-08-25T12:25:40.559Z,10.27
2022-08-25T12:28:44.832Z,8.60
2022-08-25T12:31:31.679Z,8.50
2022-08-25T12:34:38.886Z,6.88
2022-08-25T12:37:18.535Z,8.23
2022-08-25T12:40:09.383Z,8.30
2022-08-25T12:42:46.117Z,12.65
2022-08-25T12:45:40.469Z,13.02
2022-08-25T12:48:44.014Z,12.50
2022-08-25T12:51:22.577Z,11.57
2022-08-25T12:54:23.845Z,11.90
2022-08-25T12:57:00.694Z,13.10
2022-08-25T12:59:40.335Z,13.50
2022-08-25T13:02:52.124Z,12.40
2022-08-25T13:05:52.573Z,12.73
2022-08-25T13:09:14.616Z,12.20
2022-08-25T13:12:11.068Z,12.52
2022-08-25T13:14:49.737Z,11.52
2022-08-25T13:17:38.370Z,11.10
2022-08-25T13:20:29.555Z,12.88
2022-08-25T13:23:04.092Z,12.30
2022-08-25T13:25:37.094Z,11.80
2022-08-25T13:28:11.145Z,11.57
2022-08-25T13:30:41.822Z,12.65
2022-08-25T13:33:22.778Z,12.55
2022-08-25T13:36:09.236Z,13.85
2022-08-25T13:38:40.599Z,11.57
2022-08-25T13:41:13.534Z,11.02
2022-08-25T13:43:47.197Z,12.48
2022-08-25T13:46:23.049Z,11.65
2022-08-25T13:49:04.899Z,13.98
2022-08-25T13:51:35.507Z,12.55
2022-08-25T13:54:10.800Z,12.77
2022-08-25T13:56:44.427Z,12.32
2022-08-25T13:59:30.335Z,10.48
2022-08-25T14:02:01.999Z,10.32
2022-08-25T14:04:52.868Z,11.15
2022-08-25T14:07:33.742Z,10.15
2022-08-25T14:10:28.945Z,8.55
2022-08-25T14:13:31.484Z,9.13
2022-08-25T14:16:26.108Z,9.18
2022-08-25T14:19:01.097Z,9.25
2022-08-25T14:21:34.725Z,8.82
2022-08-25T14:24:05.222Z,8.07
2022-08-25T14:26:35.694Z,8.68
2022-08-25T14:29:08.123Z,7.00
2022-08-25T14:31:42.518Z,6.68
2022-08-25T14:34:28.666Z,6.70
2022-08-25T14:37:01.986Z,7.68
2022-08-25T14:39:32.440Z,7.50
2022-08-25T14:42:02.754Z,8.00
2022-08-25T14:44:33.096Z,6.40
2022-08-25T14:47:04.735Z,6.07
2022-08-25T14:49:43.399Z,5.10
2022-08-25T14:52:22.655Z,6.00
2022-08-25T14:54:53.411Z,5.95
2022-08-25T14:57:23.722Z,4.70
2022-08-25T14:59:54.854Z,6.85
2022-08-25T15:02:29.546Z,4.80
2022-08-25T15:05:09.911Z,3.83
2022-08-25T15:07:59.312Z,4.75
2022-08-25T15:10:30.299Z,3.95
2022-08-25T15:13:00.783Z,4.65
2022-08-25T15:15:32.819Z,4.38
2022-08-25T15:18:04.555Z,4.03
2022-08-25T15:20:38.456Z,4.75
2022-08-25T15:23:09.941Z,4.20
2022-08-25T15:25:40.954Z,4.05
2022-08-25T15:28:12.048Z,5.00
2022-08-25T15:30:48.676Z,4.53
2022-08-25T15:33:19.437Z,5.70
2022-08-25T15:35:52.171Z,4.90
2022-08-25T15:38:24.559Z,3.30
2022-08-25T15:40:56.910Z,3.80
2022-08-25T15:43:29.290Z,3.42
2022-08-25T15:46:05.093Z,4.45
2022-08-25T15:48:38.495Z,4.85
2022-08-25T15:51:11.506Z,5.13
2022-08-25T15:53:42.566Z,5.05
2022-08-25T15:56:16.460Z,4.82
2022-08-25T15:58:57.551Z,5.43
2022-08-25T16:01:35.040Z,4.85
2022-08-25T16:04:05.897Z,5.85
2022-08-25T16:06:37.982Z,5.10
2022-08-25T16:09:09.478Z,4.20
2022-08-25T16:11:41.263Z,3.95
2022-08-25T16:14:17.027Z,4.75
2022-08-25T16:16:48.025Z,5.22
2022-08-25T16:19:18.356Z,5.28
2022-08-25T16:21:48.698Z,5.18
2022-08-25T16:24:20.398Z,4.95
2022-08-25T16:26:52.281Z,5.22
2022-08-25T16:29:26.310Z,4.32
2022-08-25T16:32:02.328Z,4.65
2022-08-25T16:34:35.114Z,4.57
2022-08-25T16:37:07.516Z,5.43
2022-08-25T16:39:40.024Z,5.60
2022-08-25T16:42:11.746Z,5.35
2022-08-25T16:44:42.056Z,4.32
2022-08-25T16:47:14.128Z,4.40
2022-08-25T16:49:45.069Z,4.40
2022-08-25T16:52:30.781Z,3.90
2022-08-25T16:55:17.990Z,3.80
2022-08-25T16:57:58.218Z,4.75
2022-08-25T17:00:33.367Z,3.92
2022-08-25T17:03:07.057Z,4.20
2022-08-25T17:05:43.842Z,4.43
2022-08-25T17:08:32.653Z,4.32
2022-08-25T17:11:16.214Z,5.80
2022-08-25T17:13:51.603Z,5.18
2022-08-25T17:16:23.720Z,4.80
2022-08-25T17:18:55.927Z,5.40
2022-08-25T17:21:29.189Z,5.80
2022-08-25T17:24:00.115Z,5.80
2022-08-25T17:26:32.017Z,5.07
2022-08-25T17:29:04.140Z,6.90
2022-08-25T17:31:41.496Z,6.28
2022-08-25T17:34:16.558Z,6.32
2022-08-25T17:36:47.852Z,6.10
2022-08-25T17:39:22.157Z,6.38
2022-08-25T17:41:53.746Z,6.85
2022-08-25T17:44:24.206Z,7.32
2022-08-25T17:46:54.877Z,7.35
2022-08-25T17:49:27.750Z,7.00
2022-08-25T17:51:58.423Z,7.30
2022-08-25T17:54:29.075Z,6.78
2022-08-25T17:57:00.790Z,7.53
2022-08-25T17:59:32.754Z,7.47
2022-08-25T18:02:04.317Z,7.57
2022-08-25T18:04:35.593Z,8.07
2022-08-25T18:07:08.567Z,8.43
2022-08-25T18:09:39.126Z,8.02
2022-08-25T18:12:10.048Z,7.90
2022-08-25T18:14:42.537Z,9.25
2022-08-25T18:17:18.628Z,7.53
2022-08-25T18:19:53.916Z,8.02
2022-08-25T18:22:24.403Z,7.57
2022-08-25T18:24:55.120Z,8.00
2022-08-25T18:27:26.013Z,9.25
2022-08-25T18:29:57.146Z,8.07
2022-08-25T18:32:27.766Z,8.65
2022-08-25T18:35:00.016Z,8.90
2022-08-25T18:37:52.386Z,9.88
2022-08-25T18:40:26.049Z,8.73
2022-08-25T18:43:03.949Z,8.40
2022-08-25T18:45:41.181Z,7.80
2022-08-25T18:48:12.075Z,8.77
2022-08-25T18:50:44.549Z,9.25
2022-08-25T18:53:16.414Z,8.30
2022-08-25T18:55:47.569Z,8.30
2022-08-25T18:58:21.428Z,9.50
2022-08-25T19:00:54.589Z,8.57
2022-08-25T19:03:25.546Z,9.00
2022-08-25T19:05:58.445Z,8.20
2022-08-25T19:08:29.239Z,8.45
2022-08-25T19:10:59.889Z,8.82
2022-08-25T19:13:30.562Z,9.38
2022-08-25T19:16:01.893Z,8.20
2022-08-25T19:18:33.087Z,7.32
2022-08-25T19:21:04.975Z,8.27
2022-08-25T19:23:39.918Z,7.82
2022-08-25T19:26:16.989Z,7.93
2022-08-25T19:28:50.527Z,7.70
2022-08-25T19:31:25.018Z,7.22
2022-08-25T19:33:57.357Z,7.45
2022-08-25T19:36:30.169Z,6.93
2022-08-25T19:39:03.527Z,7.70
2022-08-25T19:41:35.093Z,7.50
2022-08-25T19:44:06.049Z,8.02
2022-08-25T19:46:39.808Z,7.15
2022-08-25T19:49:15.116Z,7.20
2022-08-25T19:51:51.414Z,8.40
2022-08-25T19:54:28.514Z,7.07
2022-08-25T19:57:00.626Z,6.72
2022-08-25T19:59:40.599Z,7.82
2022-08-25T20:02:21.099Z,6.38
2022-08-25T20:04:55.004Z,7.57
2022-08-25T20:07:30.066Z,7.82
2022-08-25T20:10:02.538Z,9.15
2022-08-25T20:12:33.730Z,7.38
2022-08-25T20:15:05.502Z,6.53
2022-08-25T20:17:36.263Z,8.15
2022-08-25T20:20:11.521Z,7.70
2022-08-25T20:22:42.533Z,7.68
2022-08-25T20:25:21.956Z,8.00
2022-08-25T20:27:56.202Z,8.23
2022-08-25T20:30:30.380Z,8.13
2022-08-25T20:33:01.824Z,8.43
2022-08-25T20:35:32.355Z,8.55
2022-08-25T20:38:03.134Z,8.18
2022-08-25T20:40:34.570Z,8.77
2022-08-25T20:43:11.925Z,9.07
2022-08-25T20:45:42.984Z,8.02
2022-08-25T20:48:14.416Z,8.02
2022-08-25T20:50:44.720Z,9.40
2022-08-25T20:53:15.546Z,8.73
2022-08-25T20:55:45.907Z,9.25
2022-08-25T20:58:17.453Z,8.32
2022-08-25T21:00:49.094Z,8.35
2022-08-25T21:03:19.943Z,7.57
2022-08-25T21:05:53.543Z,9.30
2022-08-25T21:08:25.441Z,8.43
2022-08-25T21:10:55.934Z,8.57
2022-08-25T21:13:26.339Z,9.77
2022-08-25T21:15:56.640Z,9.20
2022-08-25T21:18:31.401Z,8.65
2022-08-25T21:21:15.481Z,8.57
2022-08-25T21:23:50.885Z,8.57
2022-08-25T21:26:26.124Z,9.43
2022-08-25T21:28:59.102Z,9.45
2022-08-25T21:31:30.862Z,8.35
2022-08-25T21:34:02.340Z,8.70
2022-08-25T21:36:35.094Z,7.88
2022-08-25T21:39:06.649Z,8.48
2022-08-25T21:41:39.048Z,9.43
2022-08-25T21:44:10.105Z,9.15
2022-08-25T21:46:41.519Z,8.38
2022-08-25T21:49:25.302Z,8.82
2022-08-25T21:52:00.464Z,8.38
2022-08-25T21:54:32.219Z,8.98
2022-08-25T21:57:05.304Z,8.60
2022-08-25T21:59:38.358Z,9.05
2022-08-25T22:02:12.070Z,8.13
2022-08-25T22:04:42.819Z,8.82
2022-08-25T22:07:14.048Z,9.02
2022-08-25T22:09:44.479Z,9.55
2022-08-25T22:12:15.158Z,9.43
2022-08-25T22:14:46.114Z,9.52
2022-08-25T22:17:20.952Z,10.07
2022-08-25T22:19:53.616Z,9.65
2022-08-25T22:22:24.676Z,9.13
2022-08-25T22:24:56.017Z,9.02
2022-08-25T22:27:27.074Z,8.35
2022-08-25T22:29:57.692Z,9.18
2022-08-25T22:32:28.139Z,8.23
2022-08-25T22:34:58.595Z,8.98
2022-08-25T22:37:30.504Z,8.40
2022-08-25T22:40:00.937Z,7.72
2022-08-25T22:42:32.221Z,8.27
2022-08-25T22:45:03.208Z,7.97
2022-08-25T22:47:33.526Z,9.10
2022-08-25T22:50:04.164Z,8.65
2022-08-25T22:52:36.299Z,9.68
2022-08-25T22:55:08.422Z,11.02
2022-08-25T22:57:43.384Z,13.95
2022-08-25T23:00:17.085Z,11.38
2022-08-25T23:02:48.248Z,10.10
2022-08-25T23:05:18.938Z,10.48
2022-08-25T23:07:49.270Z,12.38
2022-08-25T23:10:20.158Z,11.52
2022-08-25T23:12:50.866Z,13.30
2022-08-25T23:15:21.325Z,10.25
2022-08-25T23:17:52.618Z,11.15
2022-08-25T23:20:33.209Z,10.52
2022-08-25T23:23:03.625Z,10.20
2022-08-25T23:25:34.253Z,10.15
2022-08-25T23:28:04.677Z,11.13
2022-08-25T23:30:35.026Z,11.30
2022-08-25T23:33:10.138Z,11.95
2022-08-25T23:35:40.661Z,11.57
2022-08-25T23:38:13.169Z,11.15
2022-08-25T23:40:46.952Z,11.05
2022-08-25T23:43:18.334Z,12.57
2022-08-25T23:45:48.839Z,12.40
2022-08-25T23:48:19.963Z,11.52
2022-08-25T23:50:54.099Z,11.85
2022-08-25T23:53:24.827Z,13.07
2022-08-25T23:55:55.614Z,14.55
2022-08-25T23:58:26.293Z,14.70
